sensor_id;sensor_type;location;lat;lon;timestamp;pressure;altitude;pressure_sealevel;temperature;humidity
9893;BME280;4985;49.092;8.542;2023-03-20T00:00:58;99573.03;;;17.03;52.53
9893;BME280;4985;49.092;8.542;2023-03-20T00:03:24;99571.19;;;17.04;52.54
9893;BME280;4985;49.092;8.542;2023-03-20T00:05:51;99578.34;;;17.03;52.54
9893;BME280;4985;49.092;8.542;2023-03-20T00:08:18;99574.84;;;17.03;52.54
9893;BME280;4985;49.092;8.542;2023-03-20T00:10:45;99578.34;;;17.03;52.55
9893;BME280;4985;49.092;8.542;2023-03-20T00:13:14;99583.66;;;17.03;52.54
9893;BME280;4985;49.092;8.542;2023-03-20T00:15:45;99578.34;;;17.03;52.55
9893;BME280;4985;49.092;8.542;2023-03-20T00:18:14;99586.50;;;17.02;52.56
9893;BME280;4985;49.092;8.542;2023-03-20T00:20:42;99585.69;;;17.01;52.58
9893;BME280;4985;49.092;8.542;2023-03-20T00:23:09;99580.56;;;17.00;52.60
9893;BME280;4985;49.092;8.542;2023-03-20T00:25:36;99582.41;;;16.99;52.60
9893;BME280;4985;49.092;8.542;2023-03-20T00:30:58;99595.50;;;17.01;52.59
9893;BME280;4985;49.092;8.542;2023-03-20T00:33:25;99593.69;;;17.01;52.59
9893;BME280;4985;49.092;8.542;2023-03-20T00:35:52;99599.19;;;17.00;52.60
9893;BME280;4985;49.092;8.542;2023-03-20T00:38:19;99598.38;;;16.99;52.61
9893;BME280;4985;49.092;8.542;2023-03-20T00:40:45;99598.38;;;16.99;52.60
9893;BME280;4985;49.092;8.542;2023-03-20T00:43:12;99600.19;;;16.99;52.63
9893;BME280;4985;49.092;8.542;2023-03-20T00:45:40;99595.88;;;16.98;52.61
9893;BME280;4985;49.092;8.542;2023-03-20T00:48:12;99600.19;;;16.99;52.62
9893;BME280;4985;49.092;8.542;2023-03-20T00:50:39;99600.38;;;16.97;52.63
9893;BME280;4985;49.092;8.542;2023-03-20T00:53:09;99603.88;;;16.98;52.64
9893;BME280;4985;49.092;8.542;2023-03-20T00:55:36;99598.53;;;16.98;52.64
9893;BME280;4985;49.092;8.542;2023-03-20T00:58:04;99595.88;;;16.98;52.63
9893;BME280;4985;49.092;8.542;2023-03-20T01:00:35;99601.22;;;16.98;52.63
9893;BME280;4985;49.092;8.542;2023-03-20T01:03:12;99601.22;;;16.98;52.63
9893;BME280;4985;49.092;8.542;2023-03-20T01:05:40;99607.34;;;16.98;52.62
9893;BME280;4985;49.092;8.542;2023-03-20T01:08:12;99603.88;;;16.98;52.61
9893;BME280;4985;49.092;8.542;2023-03-20T01:10:39;99609.19;;;16.98;52.61
9893;BME280;4985;49.092;8.542;2023-03-20T01:13:14;99608.38;;;16.97;52.63
9893;BME280;4985;49.092;8.542;2023-03-20T01:15:43;99608.38;;;16.97;52.62
9893;BME280;4985;49.092;8.542;2023-03-20T01:18:13;99603.25;;;16.96;52.62
9893;BME280;4985;49.092;8.542;2023-03-20T01:20:40;99605.09;;;16.95;52.64
9893;BME280;4985;49.092;8.542;2023-03-20T01:23:07;99599.75;;;16.95;52.65
9893;BME280;4985;49.092;8.542;2023-03-20T01:25:34;99604.25;;;16.95;52.64
9893;BME280;4985;49.092;8.542;2023-03-20T01:28:02;99602.63;;;16.94;52.66
9893;BME280;4985;49.092;8.542;2023-03-20T01:30:31;99602.63;;;16.94;52.67
9893;BME280;4985;49.092;8.542;2023-03-20T01:32:58;99600.78;;;16.94;52.67
9893;BME280;4985;49.092;8.542;2023-03-20T01:35:28;99605.28;;;16.94;52.66
9893;BME280;4985;49.092;8.542;2023-03-20T01:37:54;99603.66;;;16.93;52.66
9893;BME280;4985;49.092;8.542;2023-03-20T01:40:30;99606.31;;;16.93;52.67
9893;BME280;4985;49.092;8.542;2023-03-20T01:42:59;99613.47;;;16.92;52.70
9893;BME280;4985;49.092;8.542;2023-03-20T01:45:31;99611.00;;;16.91;52.71
9893;BME280;4985;49.092;8.542;2023-03-20T01:47:58;99609.38;;;16.90;52.71
9893;BME280;4985;49.092;8.542;2023-03-20T01:50:29;99620.81;;;16.90;52.73
9893;BME280;4985;49.092;8.542;2023-03-20T01:53:09;99610.19;;;16.90;52.74
9893;BME280;4985;49.092;8.542;2023-03-20T01:55:38;99617.34;;;16.90;52.75
9893;BME280;4985;49.092;8.542;2023-03-20T01:58:09;99609.12;;;16.84;52.78
9893;BME280;4985;49.092;8.542;2023-03-20T02:00:38;99614.88;;;16.88;52.78
9893;BME280;4985;49.092;8.542;2023-03-20T02:03:07;99612.41;;;16.86;52.79
9893;BME280;4985;49.092;8.542;2023-03-20T02:05:36;99610.56;;;16.87;52.79
9893;BME280;4985;49.092;8.542;2023-03-20T02:08:16;99617.72;;;16.86;52.80
9893;BME280;4985;49.092;8.542;2023-03-20T02:10:44;99620.37;;;16.86;52.79
9893;BME280;4985;49.092;8.542;2023-03-20T02:13:12;99618.72;;;16.85;52.82
9893;BME280;4985;49.092;8.542;2023-03-20T02:15:56;99620.37;;;16.86;52.81
9893;BME280;4985;49.092;8.542;2023-03-20T02:18:23;99621.38;;;16.85;52.83
9893;BME280;4985;49.092;8.542;2023-03-20T02:21:11;99622.22;;;16.86;52.83
9893;BME280;4985;49.092;8.542;2023-03-20T02:26:56;99621.59;;;16.84;52.82
9893;BME280;4985;49.092;8.542;2023-03-20T02:29:47;99624.44;;;16.82;52.84
9893;BME280;4985;49.092;8.542;2023-03-20T02:32:38;99618.31;;;16.82;52.88
9893;BME280;4985;49.092;8.542;2023-03-20T02:38:27;99612.16;;;16.81;52.89
9893;BME280;4985;49.092;8.542;2023-03-20T02:41:01;99611.34;;;16.81;52.91
9893;BME280;4985;49.092;8.542;2023-03-20T02:43:41;99608.28;;;16.77;52.92
9893;BME280;4985;49.092;8.542;2023-03-20T02:46:12;99621.16;;;16.80;52.93
9893;BME280;4985;49.092;8.542;2023-03-20T02:48:47;99621.16;;;16.80;52.92
9893;BME280;4985;49.092;8.542;2023-03-20T02:51:23;99621.16;;;16.80;52.94
9893;BME280;4985;49.092;8.542;2023-03-20T02:54:03;99624.84;;;16.79;52.94
9893;BME280;4985;49.092;8.542;2023-03-20T02:56:36;99629.34;;;16.79;52.96
9893;BME280;4985;49.092;8.542;2023-03-20T02:59:16;99626.87;;;16.77;52.95
9893;BME280;4985;49.092;8.542;2023-03-20T03:01:50;99626.87;;;16.77;52.96
9893;BME280;4985;49.092;8.542;2023-03-20T03:04:21;99632.19;;;16.77;52.95
9893;BME280;4985;49.092;8.542;2023-03-20T03:06:51;99633.03;;;16.78;52.96
9893;BME280;4985;49.092;8.542;2023-03-20T03:09:23;99644.47;;;16.78;52.97
9893;BME280;4985;49.092;8.542;2023-03-20T03:11:53;99636.69;;;16.77;52.98
9893;BME280;4985;49.092;8.542;2023-03-20T03:14:27;99633.03;;;16.78;52.98
9893;BME280;4985;49.092;8.542;2023-03-20T03:16:56;99631.38;;;16.77;52.97
9893;BME280;4985;49.092;8.542;2023-03-20T03:19:26;99634.84;;;16.77;52.98
9893;BME280;4985;49.092;8.542;2023-03-20T03:21:53;99632.19;;;16.77;52.97
9893;BME280;4985;49.092;8.542;2023-03-20T03:24:29;99636.69;;;16.77;52.96
9893;BME280;4985;49.092;8.542;2023-03-20T03:26:57;99623.97;;;16.72;52.97
9893;BME280;4985;49.092;8.542;2023-03-20T03:29:27;99632.38;;;16.76;52.97
9893;BME280;4985;49.092;8.542;2023-03-20T03:31:55;99634.22;;;16.75;52.97
9893;BME280;4985;49.092;8.542;2023-03-20T03:34:22;99635.22;;;16.74;52.99
9893;BME280;4985;49.092;8.542;2023-03-20T03:36:53;99633.38;;;16.75;53.00
9893;BME280;4985;49.092;8.542;2023-03-20T03:39:30;99630.09;;;16.73;53.01
9893;BME280;4985;49.092;8.542;2023-03-20T03:42:04;99639.91;;;16.72;53.02
9893;BME280;4985;49.092;8.542;2023-03-20T03:44:36;99642.56;;;16.72;53.04
9893;BME280;4985;49.092;8.542;2023-03-20T03:47:10;99645.25;;;16.72;53.05
9893;BME280;4985;49.092;8.542;2023-03-20T03:49:41;99642.78;;;16.71;53.06
9893;BME280;4985;49.092;8.542;2023-03-20T03:52:12;99640.13;;;16.71;53.07
9893;BME280;4985;49.092;8.542;2023-03-20T03:54:44;99640.31;;;16.69;53.07
9893;BME280;4985;49.092;8.542;2023-03-20T03:57:15;99639.50;;;16.69;53.09
9893;BME280;4985;49.092;8.542;2023-03-20T03:59:46;99637.66;;;16.69;53.09
9893;BME280;4985;49.092;8.542;2023-03-20T04:02:15;99626.19;;;16.69;53.08
9893;BME280;4985;49.092;8.542;2023-03-20T04:04:45;99627.03;;;16.69;53.09
9893;BME280;4985;49.092;8.542;2023-03-20T04:07:13;99633.34;;;16.68;53.10
9893;BME280;4985;49.092;8.542;2023-03-20T04:09:40;99623.53;;;16.69;53.11
9893;BME280;4985;49.092;8.542;2023-03-20T04:12:32;99607.59;;;16.69;53.09
9893;BME280;4985;49.092;8.542;2023-03-20T04:14:59;99620.06;;;16.68;53.07
9893;BME280;4985;49.092;8.542;2023-03-20T04:17:26;99623.53;;;16.69;53.07
9893;BME280;4985;49.092;8.542;2023-03-20T04:19:53;99620.87;;;16.69;53.10
9893;BME280;4985;49.092;8.542;2023-03-20T04:22:19;99622.72;;;16.68;53.08
9893;BME280;4985;49.092;8.542;2023-03-20T04:24:46;99629.69;;;16.69;53.07
9893;BME280;4985;49.092;8.542;2023-03-20T04:27:14;99628.88;;;16.69;53.06
9893;BME280;4985;49.092;8.542;2023-03-20T04:29:41;99631.69;;;16.67;53.05
9893;BME280;4985;49.092;8.542;2023-03-20T04:32:08;99634.19;;;16.69;53.04
9893;BME280;4985;49.092;8.542;2023-03-20T04:34:35;99644.00;;;16.68;53.06
9893;BME280;4985;49.092;8.542;2023-03-20T04:37:02;99645.81;;;16.68;53.05
9893;BME280;4985;49.092;8.542;2023-03-20T04:39:29;99650.28;;;16.67;53.07
9893;BME280;4985;49.092;8.542;2023-03-20T04:41:56;99653.16;;;16.66;53.10
9893;BME280;4985;49.092;8.542;2023-03-20T04:44:24;99656.63;;;16.66;53.11
9893;BME280;4985;49.092;8.542;2023-03-20T04:46:50;99656.63;;;16.66;53.12
9893;BME280;4985;49.092;8.542;2023-03-20T04:49:17;99655.00;;;16.65;53.10
9893;BME280;4985;49.092;8.542;2023-03-20T04:51:44;99661.12;;;16.66;53.12
9893;BME280;4985;49.092;8.542;2023-03-20T04:54:10;99660.31;;;16.65;53.11
9893;BME280;4985;49.092;8.542;2023-03-20T04:56:37;99671.75;;;16.66;53.13
9893;BME280;4985;49.092;8.542;2023-03-20T04:59:03;99663.94;;;16.64;53.12
9893;BME280;4985;49.092;8.542;2023-03-20T05:01:31;99670.94;;;16.65;53.12
9893;BME280;4985;49.092;8.542;2023-03-20T05:03:58;99663.94;;;16.64;53.13
9893;BME280;4985;49.092;8.542;2023-03-20T05:06:25;99660.47;;;16.64;53.13
9893;BME280;4985;49.092;8.542;2023-03-20T05:08:52;99655.97;;;16.64;53.12
9893;BME280;4985;49.092;8.542;2023-03-20T05:11:18;99657.81;;;16.64;53.13
9893;BME280;4985;49.092;8.542;2023-03-20T05:13:45;99652.50;;;16.64;53.12
9893;BME280;4985;49.092;8.542;2023-03-20T05:16:12;99654.12;;;16.65;53.12
9893;BME280;4985;49.092;8.542;2023-03-20T05:18:40;99657.81;;;16.64;53.12
9893;BME280;4985;49.092;8.542;2023-03-20T05:21:07;99652.50;;;16.64;53.11
9893;BME280;4985;49.092;8.542;2023-03-20T05:23:34;99654.12;;;16.65;53.09
9893;BME280;4985;49.092;8.542;2023-03-20T05:26:01;99663.13;;;16.64;53.09
9893;BME280;4985;49.092;8.542;2023-03-20T05:28:28;99667.63;;;16.63;53.10
9893;BME280;4985;49.092;8.542;2023-03-20T05:30:54;99675.41;;;16.65;53.09
9893;BME280;4985;49.092;8.542;2023-03-20T05:33:21;99672.94;;;16.63;53.08
9893;BME280;4985;49.092;8.542;2023-03-20T05:35:49;99671.91;;;16.64;53.08
9893;BME280;4985;49.092;8.542;2023-03-20T05:38:15;99678.25;;;16.63;53.08
9893;BME280;4985;49.092;8.542;2023-03-20T05:40:42;99683.38;;;16.65;53.08
9893;BME280;4985;49.092;8.542;2023-03-20T05:43:09;99679.06;;;16.64;53.05
9893;BME280;4985;49.092;8.542;2023-03-20T05:45:35;99678.25;;;16.63;53.06
9893;BME280;4985;49.092;8.542;2023-03-20T05:48:02;99678.25;;;16.63;53.06
9893;BME280;4985;49.092;8.542;2023-03-20T05:50:28;99687.25;;;16.62;53.07
9893;BME280;4985;49.092;8.542;2023-03-20T05:52:57;99692.56;;;16.62;53.07
9893;BME280;4985;49.092;8.542;2023-03-20T05:55:23;99692.75;;;16.60;53.09
9893;BME280;4985;49.092;8.542;2023-03-20T05:57:50;99692.75;;;16.60;53.11
9893;BME280;4985;49.092;8.542;2023-03-20T06:00:17;99693.56;;;16.61;53.12
9893;BME280;4985;49.092;8.542;2023-03-20T06:02:44;99694.59;;;16.60;53.13
9893;BME280;4985;49.092;8.542;2023-03-20T06:05:11;99695.22;;;16.62;53.10
9893;BME280;4985;49.092;8.542;2023-03-20T06:07:37;99704.84;;;16.63;53.07
9893;BME280;4985;49.092;8.542;2023-03-20T06:10:06;99694.19;;;16.63;53.06
9893;BME280;4985;49.092;8.542;2023-03-20T06:12:33;99680.69;;;16.58;53.07
9893;BME280;4985;49.092;8.542;2023-03-20T06:14:59;99683.78;;;16.62;53.05
9893;BME280;4985;49.092;8.542;2023-03-20T06:17:26;99681.94;;;16.62;53.06
9893;BME280;4985;49.092;8.542;2023-03-20T06:19:53;99684.78;;;16.60;53.06
9893;BME280;4985;49.092;8.542;2023-03-20T06:22:19;99681.09;;;16.62;53.08
9893;BME280;4985;49.092;8.542;2023-03-20T06:24:46;99690.91;;;16.61;53.06
9893;BME280;4985;49.092;8.542;2023-03-20T06:27:14;99688.06;;;16.63;53.04
9893;BME280;4985;49.092;8.542;2023-03-20T06:29:41;99680.28;;;16.61;53.03
9893;BME280;4985;49.092;8.542;2023-03-20T06:32:07;99687.87;;;16.64;53.02
9893;BME280;4985;49.092;8.542;2023-03-20T06:34:36;99692.38;;;16.64;53.01
9893;BME280;4985;49.092;8.542;2023-03-20T06:37:03;99696.66;;;16.65;52.99
9893;BME280;4985;49.092;8.542;2023-03-20T06:39:30;99699.31;;;16.65;52.99
9893;BME280;4985;49.092;8.542;2023-03-20T06:41:57;99702.84;;;16.65;52.99
9893;BME280;4985;49.092;8.542;2023-03-20T06:44:25;99704.84;;;16.63;53.00
9893;BME280;4985;49.092;8.542;2023-03-20T06:46:52;99716.47;;;16.62;53.01
9893;BME280;4985;49.092;8.542;2023-03-20T06:49:18;99724.47;;;16.62;53.03
9893;BME280;4985;49.092;8.542;2023-03-20T06:51:45;99736.09;;;16.61;53.07
9893;BME280;4985;49.092;8.542;2023-03-20T06:54:12;99734.28;;;16.62;53.08
9893;BME280;4985;49.092;8.542;2023-03-20T06:56:39;99740.78;;;16.59;53.10
9893;BME280;4985;49.092;8.542;2023-03-20T06:59:06;99735.47;;;16.59;53.13
9893;BME280;4985;49.092;8.542;2023-03-20T07:01:35;99735.47;;;16.59;53.17
9893;BME280;4985;49.092;8.542;2023-03-20T07:04:01;99727.69;;;16.57;53.18
9893;BME280;4985;49.092;8.542;2023-03-20T07:06:28;99727.28;;;16.54;53.20
9893;BME280;4985;49.092;8.542;2023-03-20T07:08:54;99739.34;;;16.56;53.20
9893;BME280;4985;49.092;8.542;2023-03-20T07:11:21;99742.00;;;16.56;53.21
9893;BME280;4985;49.092;8.542;2023-03-20T07:13:48;99738.53;;;16.56;53.23
9893;BME280;4985;49.092;8.542;2023-03-20T07:16:14;99743.03;;;16.55;53.25
9893;BME280;4985;49.092;8.542;2023-03-20T07:18:42;99742.19;;;16.55;53.25
9893;BME280;4985;49.092;8.542;2023-03-20T07:21:10;99751.19;;;16.54;53.26
9893;BME280;4985;49.092;8.542;2023-03-20T07:23:42;99748.53;;;16.54;53.29
9893;BME280;4985;49.092;8.542;2023-03-20T07:26:09;99746.84;;;16.53;53.31
9893;BME280;4985;49.092;8.542;2023-03-20T07:28:36;99748.53;;;16.54;53.30
9893;BME280;4985;49.092;8.542;2023-03-20T07:31:03;99745.88;;;16.54;53.30
9893;BME280;4985;49.092;8.542;2023-03-20T07:33:30;99747.69;;;16.53;53.30
9893;BME280;4985;49.092;8.542;2023-03-20T07:35:58;99744.03;;;16.54;53.29
9893;BME280;4985;49.092;8.542;2023-03-20T07:38:24;99752.84;;;16.55;53.30
9893;BME280;4985;49.092;8.542;2023-03-20T07:40:52;99743.22;;;16.54;53.31
9893;BME280;4985;49.092;8.542;2023-03-20T07:43:19;99749.34;;;16.54;53.31
9893;BME280;4985;49.092;8.542;2023-03-20T07:45:46;99751.00;;;16.55;53.29
9893;BME280;4985;49.092;8.542;2023-03-20T07:48:12;99750.19;;;16.55;53.27
9893;BME280;4985;49.092;8.542;2023-03-20T07:50:39;99751.00;;;16.55;53.26
9893;BME280;4985;49.092;8.542;2023-03-20T07:53:07;99751.00;;;16.55;53.26
9893;BME280;4985;49.092;8.542;2023-03-20T07:55:33;99748.34;;;16.55;53.24
9893;BME280;4985;49.092;8.542;2023-03-20T07:58:00;99748.16;;;16.57;53.23
9893;BME280;4985;49.092;8.542;2023-03-20T08:00:27;99746.50;;;16.56;53.23
9893;BME280;4985;49.092;8.542;2023-03-20T08:02:53;99749.78;;;16.58;53.22
9893;BME280;4985;49.092;8.542;2023-03-20T08:05:21;99739.16;;;16.58;53.21
9893;BME280;4985;49.092;8.542;2023-03-20T08:07:47;99746.31;;;16.57;53.20
9893;BME280;4985;49.092;8.542;2023-03-20T08:10:16;99749.78;;;16.58;53.20
9893;BME280;4985;49.092;8.542;2023-03-20T08:12:43;99740.16;;;16.57;53.20
9893;BME280;4985;49.092;8.542;2023-03-20T08:15:10;99748.78;;;16.59;53.20
9893;BME280;4985;49.092;8.542;2023-03-20T08:17:36;99740.78;;;16.59;53.18
9893;BME280;4985;49.092;8.542;2023-03-20T08:20:04;99735.47;;;16.59;53.19
9893;BME280;4985;49.092;8.542;2023-03-20T08:22:31;99740.78;;;16.59;53.20
9893;BME280;4985;49.092;8.542;2023-03-20T08:24:57;99740.78;;;16.59;53.22
9893;BME280;4985;49.092;8.542;2023-03-20T08:27:25;99741.81;;;16.58;53.22
9893;BME280;4985;49.092;8.542;2023-03-20T08:29:52;99747.94;;;16.58;53.25
9893;BME280;4985;49.092;8.542;2023-03-20T08:32:18;99744.47;;;16.58;53.26
9893;BME280;4985;49.092;8.542;2023-03-20T08:34:45;99754.28;;;16.57;53.27
9893;BME280;4985;49.092;8.542;2023-03-20T08:37:12;99753.47;;;16.57;53.27
9893;BME280;4985;49.092;8.542;2023-03-20T08:39:40;99748.16;;;16.57;53.28
9893;BME280;4985;49.092;8.542;2023-03-20T08:42:06;99757.94;;;16.56;53.30
9893;BME280;4985;49.092;8.542;2023-03-20T08:44:34;99760.62;;;16.56;53.32
9893;BME280;4985;49.092;8.542;2023-03-20T08:47:01;99756.31;;;16.55;53.33
9893;BME280;4985;49.092;8.542;2023-03-20T08:49:27;99763.47;;;16.55;53.33
9893;BME280;4985;49.092;8.542;2023-03-20T08:51:54;99762.44;;;16.56;53.35
9893;BME280;4985;49.092;8.542;2023-03-20T08:54:20;99765.09;;;16.56;53.34
9893;BME280;4985;49.092;8.542;2023-03-20T08:56:47;99760.81;;;16.55;53.35
9893;BME280;4985;49.092;8.542;2023-03-20T08:59:14;99763.47;;;16.55;53.37
9893;BME280;4985;49.092;8.542;2023-03-20T09:01:41;99761.81;;;16.54;53.41
9893;BME280;4985;49.092;8.542;2023-03-20T09:04:08;99767.13;;;16.54;53.41
9893;BME280;4985;49.092;8.542;2023-03-20T09:06:35;99767.13;;;16.54;53.42
9893;BME280;4985;49.092;8.542;2023-03-20T09:09:02;99775.09;;;16.54;53.43
9893;BME280;4985;49.092;8.542;2023-03-20T09:11:29;99770.78;;;16.53;53.44
9893;BME280;4985;49.092;8.542;2023-03-20T09:13:56;99775.09;;;16.54;53.43
9893;BME280;4985;49.092;8.542;2023-03-20T09:16:23;99780.44;;;16.54;53.44
9893;BME280;4985;49.092;8.542;2023-03-20T09:18:51;99775.09;;;16.54;53.45
9893;BME280;4985;49.092;8.542;2023-03-20T09:21:17;99768.50;;;16.50;53.48
9893;BME280;4985;49.092;8.542;2023-03-20T09:23:44;99775.09;;;16.54;53.50
9893;BME280;4985;49.092;8.542;2023-03-20T09:26:11;99783.91;;;16.54;53.51
9893;BME280;4985;49.092;8.542;2023-03-20T09:28:38;99784.88;;;16.53;53.53
9893;BME280;4985;49.092;8.542;2023-03-20T09:31:05;99783.09;;;16.54;53.53
9893;BME280;4985;49.092;8.542;2023-03-20T09:33:31;99795.34;;;16.55;53.53
9893;BME280;4985;49.092;8.542;2023-03-20T09:35:59;99798.19;;;16.53;53.55
9893;BME280;4985;49.092;8.542;2023-03-20T09:38:26;99805.31;;;16.53;53.56
9893;BME280;4985;49.092;8.542;2023-03-20T09:40:55;99808.81;;;16.53;53.58
9893;BME280;4985;49.092;8.542;2023-03-20T09:43:31;99807.00;;;16.54;53.60
9893;BME280;4985;49.092;8.542;2023-03-20T09:46:11;99807.81;;;16.54;53.60
9893;BME280;4985;49.092;8.542;2023-03-20T09:48:42;99812.31;;;16.54;53.61
9893;BME280;4985;49.092;8.542;2023-03-20T09:51:18;99820.09;;;16.55;53.61
9893;BME280;4985;49.092;8.542;2023-03-20T09:53:48;99821.13;;;16.54;53.61
9893;BME280;4985;49.092;8.542;2023-03-20T09:56:18;99820.91;;;16.56;53.61
9893;BME280;4985;49.092;8.542;2023-03-20T09:58:51;99820.09;;;16.55;53.60
9893;BME280;4985;49.092;8.542;2023-03-20T10:01:21;99822.56;;;16.57;53.59
9893;BME280;4985;49.092;8.542;2023-03-20T10:03:50;99829.72;;;16.56;53.59
9893;BME280;4985;49.092;8.542;2023-03-20T10:06:19;99828.69;;;16.57;53.58
9893;BME280;4985;49.092;8.542;2023-03-20T10:08:46;99834.03;;;16.57;53.58
9893;BME280;4985;49.092;8.542;2023-03-20T10:11:22;99824.22;;;16.58;53.58
9893;BME280;4985;49.092;8.542;2023-03-20T10:14:09;99828.69;;;16.57;53.58
9893;BME280;4985;49.092;8.542;2023-03-20T10:16:50;99825.03;;;16.58;53.60
9893;BME280;4985;49.092;8.542;2023-03-20T10:19:21;99829.31;;;16.59;53.59
9893;BME280;4985;49.092;8.542;2023-03-20T10:21:57;99818.69;;;16.59;53.57
9893;BME280;4985;49.092;8.542;2023-03-20T10:24:28;99816.03;;;16.59;53.57
9893;BME280;4985;49.092;8.542;2023-03-20T10:26:59;99820.53;;;16.59;53.58
9893;BME280;4985;49.092;8.542;2023-03-20T10:29:34;99814.19;;;16.60;53.57
9893;BME280;4985;49.092;8.542;2023-03-20T10:32:07;99813.19;;;16.61;53.58
9893;BME280;4985;49.092;8.542;2023-03-20T10:34:53;99807.88;;;16.61;53.58
9893;BME280;4985;49.092;8.542;2023-03-20T10:37:40;99810.53;;;16.61;53.60
9893;BME280;4985;49.092;8.542;2023-03-20T10:40:22;99809.50;;;16.62;53.59
9893;BME280;4985;49.092;8.542;2023-03-20T10:42:53;99812.16;;;16.62;53.59
9893;BME280;4985;49.092;8.542;2023-03-20T10:45:28;99809.50;;;16.62;53.60
9893;BME280;4985;49.092;8.542;2023-03-20T10:47:59;99808.31;;;16.65;53.57
9893;BME280;4985;49.092;8.542;2023-03-20T10:50:32;99807.47;;;16.64;53.55
9893;BME280;4985;49.092;8.542;2023-03-20T10:53:03;99813.81;;;16.63;53.54
9893;BME280;4985;49.092;8.542;2023-03-20T10:55:35;99801.34;;;16.64;53.55
9893;BME280;4985;49.092;8.542;2023-03-20T10:58:11;99807.47;;;16.64;53.54
9893;BME280;4985;49.092;8.542;2023-03-20T11:00:40;99799.50;;;16.64;53.54
9893;BME280;4985;49.092;8.542;2023-03-20T11:03:16;99790.56;;;16.65;53.54
9893;BME280;4985;49.092;8.542;2023-03-20T11:05:48;99790.56;;;16.65;53.54
9893;BME280;4985;49.092;8.542;2023-03-20T11:08:21;99787.91;;;16.65;53.52
9893;BME280;4985;49.092;8.542;2023-03-20T11:10:57;99789.53;;;16.66;53.56
9893;BME280;4985;49.092;8.542;2023-03-20T11:13:26;99788.72;;;16.66;53.57
9893;BME280;4985;49.092;8.542;2023-03-20T11:15:54;99786.22;;;16.64;53.56
9893;BME280;4985;49.092;8.542;2023-03-20T11:18:24;99783.56;;;16.64;53.59
9893;BME280;4985;49.092;8.542;2023-03-20T11:20:53;99792.34;;;16.65;53.61
9893;BME280;4985;49.092;8.542;2023-03-20T11:23:25;99779.91;;;16.65;53.62
9893;BME280;4985;49.092;8.542;2023-03-20T11:25:56;99787.03;;;16.65;53.64
9893;BME280;4985;49.092;8.542;2023-03-20T11:28:31;99786.06;;;16.66;53.63
9893;BME280;4985;49.092;8.542;2023-03-20T11:31:01;99783.41;;;16.66;53.65
9893;BME280;4985;49.092;8.542;2023-03-20T11:33:29;99789.53;;;16.66;53.65
9893;BME280;4985;49.092;8.542;2023-03-20T11:35:57;99780.53;;;16.67;53.65
9893;BME280;4985;49.092;8.542;2023-03-20T11:38:28;99777.88;;;16.67;53.64
9893;BME280;4985;49.092;8.542;2023-03-20T11:40:56;99771.59;;;16.68;53.65
9893;BME280;4985;49.092;8.542;2023-03-20T11:43:24;99771.59;;;16.68;53.65
9893;BME280;4985;49.092;8.542;2023-03-20T11:45:54;99773.22;;;16.69;53.65
9893;BME280;4985;49.092;8.542;2023-03-20T11:48:23;99776.72;;;16.70;53.64
9893;BME280;4985;49.092;8.542;2023-03-20T11:50:56;99773.03;;;16.71;53.64
9893;BME280;4985;49.092;8.542;2023-03-20T11:53:27;99766.91;;;16.70;53.63
9893;BME280;4985;49.092;8.542;2023-03-20T11:56:05;99764.03;;;16.72;53.60
9893;BME280;4985;49.092;8.542;2023-03-20T11:58:33;99759.75;;;16.71;53.60
9893;BME280;4985;49.092;8.542;2023-03-20T12:01:02;99760.38;;;16.73;53.61
9893;BME280;4985;49.092;8.542;2023-03-20T12:03:39;99757.72;;;16.73;53.61
9893;BME280;4985;49.092;8.542;2023-03-20T12:06:12;99763.03;;;16.73;53.61
9893;BME280;4985;49.092;8.542;2023-03-20T12:08:42;99758.53;;;16.73;53.59
9893;BME280;4985;49.092;8.542;2023-03-20T12:11:23;99751.19;;;16.75;53.61
9893;BME280;4985;49.092;8.542;2023-03-20T12:13:55;99751.19;;;16.75;53.60
9893;BME280;4985;49.092;8.542;2023-03-20T12:16:26;99744.03;;;16.76;53.60
9893;BME280;4985;49.092;8.542;2023-03-20T12:18:58;99747.53;;;16.76;53.59
9893;BME280;4985;49.092;8.542;2023-03-20T12:21:31;99745.50;;;16.78;53.58
9893;BME280;4985;49.092;8.542;2023-03-20T12:24:07;99745.50;;;16.78;53.56
9893;BME280;4985;49.092;8.542;2023-03-20T12:26:41;99743.03;;;16.77;53.55
9893;BME280;4985;49.092;8.542;2023-03-20T12:29:16;99738.53;;;16.77;53.58
9893;BME280;4985;49.092;8.542;2023-03-20T12:31:48;99735.06;;;16.77;53.58
9893;BME280;4985;49.092;8.542;2023-03-20T12:34:19;99739.38;;;16.78;53.60
9893;BME280;4985;49.092;8.542;2023-03-20T12:36:48;99738.53;;;16.77;53.59
9893;BME280;4985;49.092;8.542;2023-03-20T12:39:19;99717.28;;;16.77;53.58
9893;BME280;4985;49.092;8.542;2023-03-20T12:41:56;99734.87;;;16.78;53.58
9893;BME280;4985;49.092;8.542;2023-03-20T12:44:33;99723.22;;;16.79;53.56
9893;BME280;4985;49.092;8.542;2023-03-20T12:47:13;99715.25;;;16.79;53.56
9893;BME280;4985;49.092;8.542;2023-03-20T12:49:48;99716.88;;;16.80;53.54
9893;BME280;4985;49.092;8.542;2023-03-20T12:52:27;99712.37;;;16.81;53.52
9893;BME280;4985;49.092;8.542;2023-03-20T12:55:09;99706.88;;;16.82;53.53
9893;BME280;4985;49.092;8.542;2023-03-20T12:57:47;99709.53;;;16.82;53.52
9893;BME280;4985;49.092;8.542;2023-03-20T13:00:19;99701.56;;;16.82;53.51
9893;BME280;4985;49.092;8.542;2023-03-20T13:02:58;99705.84;;;16.83;53.52
9893;BME280;4985;49.092;8.542;2023-03-20T13:05:36;99710.34;;;16.83;53.52
9893;BME280;4985;49.092;8.542;2023-03-20T13:08:25;99689.91;;;16.83;53.52
9893;BME280;4985;49.092;8.542;2023-03-20T13:11:03;99684.59;;;16.83;53.54
9893;BME280;4985;49.092;8.542;2023-03-20T13:13:36;99690.72;;;16.84;53.53
9893;BME280;4985;49.092;8.542;2023-03-20T13:16:15;99685.59;;;16.82;53.52
9893;BME280;4985;49.092;8.542;2023-03-20T13:18:52;99680.28;;;16.82;53.51
9893;BME280;4985;49.092;8.542;2023-03-20T13:21:28;99678.88;;;16.86;53.51
9893;BME280;4985;49.092;8.542;2023-03-20T13:24:06;99678.88;;;16.86;53.51
9893;BME280;4985;49.092;8.542;2023-03-20T13:26:45;99678.03;;;16.86;53.51
9893;BME280;4985;49.092;8.542;2023-03-20T13:29:16;99679.69;;;16.87;53.51
9893;BME280;4985;49.092;8.542;2023-03-20T13:31:52;99667.81;;;16.83;53.51
9893;BME280;4985;49.092;8.542;2023-03-20T13:34:29;99674.38;;;16.87;53.50
9893;BME280;4985;49.092;8.542;2023-03-20T13:37:09;99662.28;;;16.84;53.52
9893;BME280;4985;49.092;8.542;2023-03-20T13:39:41;99671.53;;;16.88;53.51
9893;BME280;4985;49.092;8.542;2023-03-20T13:42:13;99663.56;;;16.88;53.49
9893;BME280;4985;49.092;8.542;2023-03-20T13:44:43;99667.88;;;16.90;53.48
9893;BME280;4985;49.092;8.542;2023-03-20T13:47:12;99669.50;;;16.91;53.48